createdAt,value
2017-07-22T00:01:46.207Z,25.80
2017-07-22T00:04:13.730Z,25.70
2017-07-22T00:06:41.275Z,25.80
2017-07-22T00:09:08.798Z,25.70
2017-07-22T00:11:37.112Z,25.80
2017-07-22T00:14:04.702Z,25.80
2017-07-22T00:16:32.242Z,25.70
2017-07-22T00:18:59.782Z,25.70
2017-07-22T00:21:27.303Z,25.60
2017-07-22T00:23:54.843Z,25.60
2017-07-22T00:26:22.372Z,25.60
2017-07-22T00:28:49.926Z,25.70
2017-07-22T00:31:17.431Z,25.60
2017-07-22T00:33:45.004Z,25.60
2017-07-22T00:36:12.550Z,25.70
2017-07-22T00:38:40.091Z,25.60
2017-07-22T00:41:07.611Z,25.60
2017-07-22T00:43:35.169Z,25.60
2017-07-22T00:46:02.679Z,25.60
2017-07-22T00:48:30.238Z,25.70
2017-07-22T00:50:57.748Z,25.60
2017-07-22T00:53:25.284Z,25.70
2017-07-22T00:55:53.570Z,25.70
2017-07-22T00:58:21.138Z,25.60
2017-07-22T01:00:48.670Z,25.60
2017-07-22T01:03:16.205Z,25.60
2017-07-22T01:05:43.754Z,25.60
2017-07-22T01:08:11.347Z,25.60
2017-07-22T01:10:38.881Z,25.60
2017-07-22T01:13:06.440Z,25.50
2017-07-22T01:15:33.956Z,25.50
2017-07-22T01:18:01.510Z,25.40
2017-07-22T01:20:29.013Z,25.50
2017-07-22T01:22:56.580Z,25.50
2017-07-22T01:25:24.107Z,25.50
2017-07-22T01:27:51.629Z,25.50
2017-07-22T01:30:19.156Z,25.50
2017-07-22T01:32:46.707Z,25.50
2017-07-22T01:35:14.210Z,25.50
2017-07-22T01:37:41.810Z,25.50
2017-07-22T01:40:09.333Z,25.40
2017-07-22T01:42:36.890Z,25.20
2017-07-22T01:45:04.414Z,24.60
2017-07-22T01:47:31.944Z,23.80
2017-07-22T01:49:59.503Z,23.00
2017-07-22T01:52:27.083Z,23.00
2017-07-22T01:54:54.622Z,22.90
2017-07-22T01:57:22.171Z,23.60
2017-07-22T01:59:49.739Z,24.10
2017-07-22T02:02:17.303Z,23.90
2017-07-22T02:04:44.829Z,23.00
2017-07-22T02:07:13.128Z,21.70
2017-07-22T02:09:40.688Z,21.70
2017-07-22T02:12:08.251Z,21.60
2017-07-22T02:14:35.790Z,21.80
2017-07-22T02:17:03.322Z,21.60
2017-07-22T02:19:30.866Z,21.90
2017-07-22T02:21:58.396Z,21.90
2017-07-22T02:24:25.953Z,21.90
2017-07-22T02:29:27.429Z,22.30
2017-07-22T02:31:54.930Z,22.00
2017-07-22T02:34:22.470Z,22.00
2017-07-22T02:36:49.977Z,22.10
2017-07-22T02:39:19.187Z,22.90
2017-07-22T02:41:46.733Z,22.90
2017-07-22T02:44:15.050Z,23.20
2017-07-22T02:46:42.581Z,23.20
2017-07-22T02:49:10.894Z,23.70
2017-07-22T02:51:38.452Z,23.70
2017-07-22T02:54:06.003Z,23.80
2017-07-22T02:56:33.518Z,23.80
2017-07-22T02:59:01.061Z,23.90
2017-07-22T03:01:28.598Z,24.00
2017-07-22T03:03:56.169Z,24.00
2017-07-22T03:06:23.699Z,24.10
2017-07-22T03:08:51.278Z,24.20
2017-07-22T03:11:18.817Z,24.10
2017-07-22T03:13:46.386Z,24.10
2017-07-22T03:16:13.944Z,24.20
2017-07-22T03:18:41.526Z,24.20
2017-07-22T03:21:09.063Z,24.20
2017-07-22T03:23:36.625Z,24.30
2017-07-22T03:26:04.145Z,24.30
2017-07-22T03:28:31.670Z,24.20
2017-07-22T03:30:59.234Z,24.10
2017-07-22T03:33:26.765Z,24.20
2017-07-22T03:35:54.335Z,24.20
2017-07-22T03:38:21.897Z,24.20
2017-07-22T03:40:49.446Z,24.20
2017-07-22T03:43:17.011Z,24.20
2017-07-22T03:45:44.536Z,24.10
2017-07-22T03:48:12.854Z,24.10
2017-07-22T03:50:40.372Z,24.10
2017-07-22T03:53:08.693Z,24.10
2017-07-22T03:55:36.246Z,24.10
2017-07-22T03:58:03.797Z,24.10
2017-07-22T04:00:31.403Z,24.10
2017-07-22T04:02:58.939Z,24.20
2017-07-22T04:05:26.528Z,24.10
2017-07-22T04:07:54.057Z,24.20
2017-07-22T04:10:21.654Z,24.20
2017-07-22T04:12:49.183Z,24.30
2017-07-22T04:15:16.774Z,24.20
2017-07-22T04:17:44.277Z,24.30
2017-07-22T04:20:11.832Z,24.20
2017-07-22T04:22:39.383Z,24.20
2017-07-22T04:25:07.673Z,24.20
2017-07-22T04:27:35.274Z,24.20
2017-07-22T04:30:02.843Z,24.20
2017-07-22T04:32:31.180Z,24.20
2017-07-22T04:34:58.735Z,24.20
2017-07-22T04:37:26.257Z,24.20
2017-07-22T04:39:53.830Z,24.20
2017-07-22T04:42:21.381Z,24.20
2017-07-22T04:44:48.952Z,24.20
2017-07-22T04:47:17.261Z,24.20
2017-07-22T04:49:44.790Z,24.20
2017-07-22T04:52:13.074Z,24.20
2017-07-22T04:54:40.626Z,24.20
2017-07-22T04:57:08.907Z,24.20
2017-07-22T04:59:37.226Z,24.10
2017-07-22T05:02:04.748Z,24.10
2017-07-22T05:04:32.310Z,24.10
2017-07-22T05:06:59.843Z,24.10
2017-07-22T05:09:28.142Z,24.30
2017-07-22T05:11:55.711Z,24.20
2017-07-22T05:14:23.242Z,24.30
2017-07-22T05:16:50.777Z,24.30
2017-07-22T05:19:18.302Z,24.30
2017-07-22T05:21:45.823Z,24.30
2017-07-22T05:24:13.357Z,24.30
2017-07-22T05:26:40.881Z,24.30
2017-07-22T05:29:08.468Z,24.40
2017-07-22T05:31:36.002Z,24.40
2017-07-22T05:34:03.529Z,24.50
2017-07-22T05:36:31.095Z,24.50
2017-07-22T05:38:58.618Z,24.60
2017-07-22T05:41:26.152Z,24.70
2017-07-22T05:43:53.689Z,24.80
2017-07-22T05:46:21.267Z,24.90
2017-07-22T05:48:48.811Z,25.10
2017-07-22T05:51:16.354Z,25.10
2017-07-22T05:53:43.877Z,25.20
2017-07-22T05:56:11.409Z,25.20
2017-07-22T05:58:38.974Z,25.20
2017-07-22T06:01:06.527Z,25.30
2017-07-22T06:03:34.089Z,25.50
2017-07-22T06:06:01.651Z,25.60
2017-07-22T06:08:29.185Z,25.70
2017-07-22T06:10:56.714Z,25.70
2017-07-22T06:13:24.230Z,25.80
2017-07-22T06:15:51.789Z,25.90
2017-07-22T06:18:19.294Z,25.90
2017-07-22T06:20:46.829Z,25.90
2017-07-22T06:23:14.346Z,26.00
2017-07-22T06:25:41.877Z,26.00
2017-07-22T06:28:10.166Z,26.10
2017-07-22T06:30:37.704Z,26.10
2017-07-22T06:33:06.033Z,26.20
2017-07-22T06:35:33.632Z,26.20
2017-07-22T06:38:01.150Z,26.30
2017-07-22T06:40:28.750Z,26.40
2017-07-22T06:42:56.276Z,26.50
2017-07-22T06:45:23.839Z,26.80
2017-07-22T06:47:51.370Z,26.70
2017-07-22T06:50:19.677Z,27.10
2017-07-22T06:52:47.212Z,27.10
2017-07-22T06:55:14.767Z,28.10
2017-07-22T06:57:43.091Z,31.20
2017-07-22T07:00:10.633Z,31.10
2017-07-22T07:02:38.137Z,32.60
2017-07-22T07:05:05.654Z,33.80
2017-07-22T07:07:33.162Z,34.90
2017-07-22T07:10:00.682Z,36.00
2017-07-22T07:12:28.241Z,37.00
2017-07-22T07:14:55.768Z,37.60
2017-07-22T07:17:23.298Z,37.50
2017-07-22T07:19:50.834Z,38.00
2017-07-22T07:22:18.377Z,38.00
2017-07-22T07:24:45.883Z,37.10
2017-07-22T07:27:13.450Z,36.10
2017-07-22T07:29:41.730Z,36.20
2017-07-22T07:32:09.277Z,36.10
2017-07-22T07:34:36.795Z,36.30
2017-07-22T07:37:04.342Z,36.00
2017-07-22T07:39:31.850Z,36.60
2017-07-22T07:41:59.386Z,37.00
2017-07-22T07:44:26.929Z,36.20
2017-07-22T07:46:54.459Z,35.50
2017-07-22T07:49:21.979Z,35.30
2017-07-22T07:51:49.527Z,36.20
2017-07-22T07:54:17.045Z,36.40
2017-07-22T07:56:44.564Z,36.40
2017-07-22T07:59:12.100Z,36.30
2017-07-22T08:01:39.690Z,35.70
2017-07-22T08:04:07.214Z,36.30
2017-07-22T08:06:34.751Z,36.80
2017-07-22T08:09:02.274Z,37.80
2017-07-22T08:11:30.572Z,38.50
2017-07-22T08:13:58.077Z,38.40
2017-07-22T08:16:25.622Z,37.00
2017-07-22T08:18:53.166Z,35.60
2017-07-22T08:21:20.731Z,35.30
2017-07-22T08:23:48.246Z,35.20
2017-07-22T08:26:15.802Z,35.60
2017-07-22T08:28:44.094Z,36.00
2017-07-22T08:31:12.419Z,35.80
2017-07-22T08:33:39.938Z,35.80
2017-07-22T08:36:08.250Z,34.50
2017-07-22T08:38:35.832Z,34.50
2017-07-22T08:41:03.363Z,34.30
2017-07-22T08:43:30.885Z,33.90
2017-07-22T08:45:58.457Z,33.10
2017-07-22T08:48:26.742Z,32.70
2017-07-22T08:50:54.291Z,32.60
2017-07-22T08:53:21.814Z,32.80
2017-07-22T08:55:49.353Z,32.40
2017-07-22T08:58:16.912Z,31.90
2017-07-22T09:00:44.475Z,31.70
2017-07-22T09:03:12.050Z,31.30
2017-07-22T09:05:39.565Z,30.80
2017-07-22T09:08:07.120Z,30.80
2017-07-22T09:10:34.685Z,30.70
2017-07-22T09:13:02.242Z,30.80
2017-07-22T09:15:29.815Z,31.00
2017-07-22T09:17:57.375Z,30.80
2017-07-22T09:20:24.904Z,30.60
2017-07-22T09:22:52.464Z,30.50
2017-07-22T09:25:19.998Z,30.40
2017-07-22T09:30:21.366Z,31.00
2017-07-22T09:32:48.915Z,30.90
2017-07-22T09:35:16.440Z,31.10
2017-07-22T09:37:43.976Z,31.10
2017-07-22T09:40:12.298Z,31.80
2017-07-22T09:42:39.845Z,31.80
2017-07-22T09:45:07.345Z,32.30
2017-07-22T09:47:34.894Z,32.90
2017-07-22T09:50:02.436Z,33.30
2017-07-22T09:52:30.006Z,33.00
2017-07-22T09:54:57.530Z,32.80
2017-07-22T09:57:25.081Z,32.90
2017-07-22T09:59:52.596Z,33.00
2017-07-22T10:02:20.147Z,32.70
2017-07-22T10:04:47.665Z,33.20
2017-07-22T10:07:15.214Z,33.00
2017-07-22T10:09:42.758Z,32.70
2017-07-22T10:12:10.327Z,32.90
2017-07-22T10:14:37.867Z,32.70
2017-07-22T10:17:05.413Z,32.60
2017-07-22T10:19:32.960Z,32.40
2017-07-22T10:22:00.504Z,32.60
2017-07-22T10:24:28.010Z,32.80
2017-07-22T10:26:55.593Z,33.20
2017-07-22T10:29:23.101Z,32.40
2017-07-22T10:31:50.754Z,32.50
2017-07-22T10:34:18.262Z,32.00
2017-07-22T10:36:45.824Z,31.80
2017-07-22T10:39:14.141Z,31.10
2017-07-22T10:41:41.700Z,31.10
2017-07-22T10:44:09.258Z,31.30
2017-07-22T10:46:36.830Z,31.80
2017-07-22T10:49:04.387Z,31.80
2017-07-22T10:51:31.967Z,32.10
2017-07-22T10:53:59.481Z,32.10
2017-07-22T10:56:27.005Z,32.30
2017-07-22T10:58:54.545Z,32.90
2017-07-22T11:01:22.106Z,33.30
2017-07-22T11:03:49.727Z,33.00
2017-07-22T11:06:17.250Z,33.10
2017-07-22T11:08:44.813Z,33.30
2017-07-22T11:11:13.099Z,33.80
2017-07-22T11:13:41.417Z,34.00
2017-07-22T11:16:08.939Z,34.00
2017-07-22T11:18:37.242Z,34.10
2017-07-22T11:21:04.784Z,34.10
2017-07-22T11:23:32.331Z,34.40
2017-07-22T11:26:00.618Z,34.40
2017-07-22T11:28:28.151Z,34.40
2017-07-22T11:30:55.678Z,33.10
2017-07-22T11:33:23.214Z,33.00
2017-07-22T11:35:50.736Z,33.10
2017-07-22T11:38:18.270Z,33.40
2017-07-22T11:40:45.818Z,33.90
2017-07-22T11:43:13.370Z,34.40
2017-07-22T11:45:40.934Z,34.70
2017-07-22T11:48:08.499Z,34.00
2017-07-22T11:50:36.011Z,34.00
2017-07-22T11:53:04.313Z,34.40
2017-07-22T11:55:31.839Z,34.40
2017-07-22T11:58:00.152Z,33.80
2017-07-22T12:00:27.691Z,33.70
2017-07-22T12:02:55.242Z,33.80
2017-07-22T12:05:22.788Z,33.80
2017-07-22T12:07:50.359Z,33.50
2017-07-22T12:10:18.634Z,33.70
2017-07-22T12:12:46.922Z,33.70
2017-07-22T12:15:15.204Z,33.80
2017-07-22T12:17:42.759Z,33.80
2017-07-22T12:20:11.037Z,33.90
2017-07-22T12:22:38.603Z,33.90
2017-07-22T12:25:06.156Z,34.40
2017-07-22T12:27:33.691Z,34.50
2017-07-22T12:30:01.216Z,34.10
2017-07-22T12:32:28.839Z,33.80
2017-07-22T12:34:57.126Z,33.60
2017-07-22T12:37:24.737Z,33.50
2017-07-22T12:39:52.282Z,32.60
2017-07-22T12:42:19.808Z,32.10
2017-07-22T12:44:47.330Z,32.00
2017-07-22T12:47:14.840Z,32.00
2017-07-22T12:49:42.399Z,32.60
2017-07-22T12:52:11.578Z,34.00
2017-07-22T12:54:39.113Z,34.00
2017-07-22T12:57:07.397Z,34.00
2017-07-22T12:59:35.724Z,34.40
2017-07-22T13:02:03.263Z,34.40
2017-07-22T13:04:30.830Z,34.60
2017-07-22T13:06:58.369Z,35.10
2017-07-22T13:09:25.930Z,34.30
2017-07-22T13:11:53.486Z,33.80
2017-07-22T13:14:21.798Z,33.10
2017-07-22T13:16:49.350Z,33.10
2017-07-22T13:19:16.894Z,32.40
2017-07-22T13:21:44.461Z,32.60
2017-07-22T13:24:12.018Z,32.80
2017-07-22T13:26:40.298Z,32.70
2017-07-22T13:29:07.845Z,32.90
2017-07-22T13:31:35.385Z,33.30
2017-07-22T13:34:03.720Z,33.60
2017-07-22T13:36:31.280Z,33.60
2017-07-22T13:38:58.824Z,34.20
2017-07-22T13:41:26.350Z,34.50
2017-07-22T13:43:54.686Z,35.20
2017-07-22T13:46:22.189Z,35.20
2017-07-22T13:48:49.754Z,35.40
2017-07-22T13:51:17.265Z,34.90
2017-07-22T13:53:44.799Z,35.20
2017-07-22T13:56:12.336Z,34.40
2017-07-22T13:58:39.891Z,34.90
2017-07-22T14:01:08.170Z,34.00
2017-07-22T14:03:35.699Z,34.00
2017-07-22T14:06:03.211Z,33.80
2017-07-22T14:08:30.774Z,34.40
2017-07-22T14:10:58.352Z,34.50
2017-07-22T14:13:26.001Z,34.50
2017-07-22T14:15:53.523Z,34.70
2017-07-22T14:18:21.091Z,33.80
2017-07-22T14:20:49.393Z,33.50
2017-07-22T14:23:16.920Z,33.50
2017-07-22T14:25:44.457Z,33.60
2017-07-22T14:28:12.002Z,33.50
2017-07-22T14:30:39.575Z,33.60
2017-07-22T14:33:07.116Z,33.90
2017-07-22T14:35:34.687Z,34.30
2017-07-22T14:38:02.214Z,34.10
2017-07-22T14:40:29.745Z,33.60
2017-07-22T14:42:57.300Z,33.30
2017-07-22T14:45:25.597Z,33.60
2017-07-22T14:47:53.176Z,33.60
2017-07-22T14:50:20.730Z,33.40
2017-07-22T14:52:48.259Z,33.30
2017-07-22T14:55:15.797Z,34.00
2017-07-22T14:57:44.124Z,34.70
2017-07-22T15:00:11.675Z,34.70
2017-07-22T15:02:39.253Z,34.60
2017-07-22T15:05:06.799Z,34.50
2017-07-22T15:07:34.326Z,34.00
2017-07-22T15:10:02.642Z,31.90
2017-07-22T15:12:30.160Z,31.90
2017-07-22T15:14:57.715Z,31.80
2017-07-22T15:17:25.226Z,32.20
2017-07-22T15:19:52.783Z,32.60
2017-07-22T15:22:20.299Z,32.50
2017-07-22T15:24:48.594Z,32.70
2017-07-22T15:27:16.140Z,32.70
2017-07-22T15:29:44.465Z,33.10
2017-07-22T15:32:11.999Z,33.10
2017-07-22T15:34:40.450Z,32.80
2017-07-22T15:37:08.015Z,32.90
2017-07-22T15:39:35.538Z,33.00
2017-07-22T15:42:03.042Z,33.30
2017-07-22T15:44:30.662Z,33.30
2017-07-22T15:46:58.190Z,33.10
2017-07-22T15:49:25.707Z,32.80
2017-07-22T15:51:53.220Z,32.40
2017-07-22T15:54:20.787Z,32.20
2017-07-22T15:56:48.290Z,31.80
2017-07-22T15:59:15.829Z,31.60
2017-07-22T16:01:43.355Z,31.80
2017-07-22T16:04:10.882Z,31.60
2017-07-22T16:06:38.435Z,31.70
2017-07-22T16:09:06.746Z,31.90
2017-07-22T16:11:34.257Z,31.90
2017-07-22T16:14:02.655Z,32.50
2017-07-22T16:16:30.164Z,32.40
2017-07-22T16:18:57.713Z,32.70
2017-07-22T16:21:25.226Z,32.60
2017-07-22T16:23:52.731Z,32.80
2017-07-22T16:26:20.286Z,32.80
2017-07-22T16:28:47.834Z,32.70
2017-07-22T16:31:15.389Z,32.50
2017-07-22T16:33:42.933Z,32.20
2017-07-22T16:36:11.255Z,32.00
2017-07-22T16:38:38.771Z,31.90
2017-07-22T16:41:06.322Z,32.00
2017-07-22T16:43:34.606Z,32.10
2017-07-22T16:46:02.935Z,32.10
2017-07-22T16:48:30.471Z,32.10
2017-07-22T16:50:58.042Z,32.10
2017-07-22T16:53:25.575Z,32.20
2017-07-22T16:55:53.173Z,32.30
2017-07-22T16:58:20.683Z,32.40
2017-07-22T17:00:48.982Z,32.60
2017-07-22T17:03:16.576Z,32.60
2017-07-22T17:05:44.112Z,32.70
2017-07-22T17:08:11.648Z,32.80
2017-07-22T17:10:39.176Z,32.80
2017-07-22T17:13:06.708Z,32.90
2017-07-22T17:15:34.261Z,32.90
2017-07-22T17:18:01.783Z,32.90
2017-07-22T17:20:30.069Z,32.80
2017-07-22T17:22:57.603Z,32.80
2017-07-22T17:25:25.897Z,32.90
2017-07-22T17:27:53.434Z,32.90
2017-07-22T17:30:20.967Z,32.80
2017-07-22T17:32:48.485Z,32.70
2017-07-22T17:35:16.000Z,32.80
2017-07-22T17:37:43.528Z,32.70
2017-07-22T17:40:11.083Z,32.70
2017-07-22T17:42:38.583Z,32.70
2017-07-22T17:45:06.114Z,32.70
2017-07-22T17:47:33.639Z,32.70
2017-07-22T17:50:01.231Z,32.70
2017-07-22T17:52:28.741Z,32.70
2017-07-22T17:54:57.055Z,32.60
2017-07-22T17:57:24.597Z,32.60
2017-07-22T17:59:52.136Z,32.60
2017-07-22T18:02:20.442Z,32.40
2017-07-22T18:04:47.998Z,32.40
2017-07-22T18:07:15.572Z,32.40
2017-07-22T18:09:43.088Z,32.50
2017-07-22T18:12:10.614Z,32.30
2017-07-22T18:14:38.114Z,32.20
2017-07-22T18:17:06.434Z,32.00
2017-07-22T18:19:33.958Z,31.90
2017-07-22T18:22:01.518Z,31.60
2017-07-22T18:24:29.848Z,31.40
2017-07-22T18:26:57.384Z,31.40
2017-07-22T18:29:24.912Z,31.40
2017-07-22T18:31:53.197Z,31.60
2017-07-22T18:34:21.474Z,31.50
2017-07-22T18:36:49.021Z,31.50
2017-07-22T18:39:17.328Z,31.70
2017-07-22T18:41:44.854Z,31.70
2017-07-22T18:44:12.488Z,31.80
2017-07-22T18:46:40.049Z,31.90
2017-07-22T18:49:07.597Z,32.10
2017-07-22T18:51:35.130Z,31.60
2017-07-22T18:54:02.727Z,31.30
2017-07-22T18:56:30.274Z,31.00
2017-07-22T18:58:57.787Z,30.60
2017-07-22T19:01:25.373Z,30.40
2017-07-22T19:03:52.915Z,30.10
2017-07-22T19:06:20.497Z,30.30
2017-07-22T19:08:48.034Z,30.60
2017-07-22T19:11:15.615Z,30.60
2017-07-22T19:13:43.134Z,30.30
2017-07-22T19:16:10.667Z,30.50
2017-07-22T19:18:38.222Z,30.40
2017-07-22T19:21:05.762Z,30.40
2017-07-22T19:23:33.271Z,30.50
2017-07-22T19:26:00.898Z,30.60
2017-07-22T19:28:28.420Z,30.50
2017-07-22T19:30:55.982Z,30.60
2017-07-22T19:33:23.515Z,30.10
2017-07-22T19:35:51.053Z,30.00
2017-07-22T19:38:18.634Z,30.20
2017-07-22T19:40:46.980Z,30.60
2017-07-22T19:43:14.509Z,30.70
2017-07-22T19:45:42.043Z,30.90
2017-07-22T19:48:09.570Z,31.00
2017-07-22T19:50:37.102Z,31.10
2017-07-22T19:53:04.619Z,31.00
2017-07-22T19:55:32.215Z,30.80
2017-07-22T19:57:59.742Z,30.80
2017-07-22T20:00:28.042Z,30.80
2017-07-22T20:02:55.598Z,30.80
2017-07-22T20:05:23.110Z,30.70
2017-07-22T20:07:50.635Z,30.80
2017-07-22T20:10:18.142Z,30.70
2017-07-22T20:12:45.667Z,30.70
2017-07-22T20:15:13.190Z,30.50
2017-07-22T20:17:40.738Z,30.50
2017-07-22T20:20:09.023Z,30.10
2017-07-22T20:22:36.554Z,30.10
2017-07-22T20:25:04.092Z,30.10
2017-07-22T20:27:31.637Z,30.00
2017-07-22T20:29:59.158Z,30.10
2017-07-22T20:32:26.694Z,30.00
2017-07-22T20:34:54.198Z,29.80
2017-07-22T20:37:21.753Z,29.80
2017-07-22T20:39:49.281Z,29.80
2017-07-22T20:42:17.567Z,29.60
2017-07-22T20:44:45.909Z,29.60
2017-07-22T20:47:13.474Z,29.60
2017-07-22T20:49:40.987Z,29.50
2017-07-22T20:52:08.542Z,29.50
2017-07-22T20:54:36.063Z,29.40
2017-07-22T20:57:03.615Z,29.30
2017-07-22T20:59:31.113Z,29.20
2017-07-22T21:01:58.669Z,29.20
2017-07-22T21:04:26.193Z,29.20
2017-07-22T21:06:53.731Z,29.20
2017-07-22T21:09:21.258Z,29.20
2017-07-22T21:11:48.810Z,29.10
2017-07-22T21:14:16.336Z,29.00
2017-07-22T21:16:43.879Z,28.90
2017-07-22T21:19:11.422Z,28.90
2017-07-22T21:21:38.979Z,28.70
2017-07-22T21:24:06.570Z,28.70
2017-07-22T21:26:34.102Z,28.50
2017-07-22T21:29:01.634Z,28.40
2017-07-22T21:31:29.180Z,28.40
2017-07-22T21:33:56.714Z,28.40
2017-07-22T21:36:24.250Z,28.30
2017-07-22T21:38:51.770Z,28.00
2017-07-22T21:41:19.335Z,28.00
2017-07-22T21:43:46.855Z,27.90
2017-07-22T21:46:14.397Z,28.00
2017-07-22T21:48:41.973Z,28.00
2017-07-22T21:51:09.479Z,27.90
2017-07-22T21:53:37.036Z,27.80
2017-07-22T21:56:04.553Z,27.80
2017-07-22T21:58:32.110Z,27.80
2017-07-22T22:00:59.679Z,27.70
2017-07-22T22:03:27.235Z,27.70
2017-07-22T22:05:54.758Z,27.70
2017-07-22T22:08:22.299Z,27.70
2017-07-22T22:10:49.818Z,27.70
2017-07-22T22:13:18.158Z,27.70
2017-07-22T22:15:45.725Z,27.60
2017-07-22T22:18:13.277Z,27.60
2017-07-22T22:20:40.800Z,27.20
2017-07-22T22:23:08.331Z,27.10
2017-07-22T22:25:35.916Z,26.80
2017-07-22T22:28:04.219Z,26.70
2017-07-22T22:30:31.750Z,26.70
2017-07-22T22:32:59.355Z,26.60
2017-07-22T22:35:26.921Z,26.50
2017-07-22T22:37:54.495Z,26.20
2017-07-22T22:40:22.056Z,26.20
2017-07-22T22:42:49.596Z,26.30
2017-07-22T22:45:17.143Z,26.20
2017-07-22T22:47:44.694Z,26.20
2017-07-22T22:50:12.214Z,26.30
2017-07-22T22:52:40.524Z,26.20
2017-07-22T22:55:08.058Z,26.10
2017-07-22T22:57:36.342Z,26.00
2017-07-22T23:00:03.865Z,26.00
2017-07-22T23:02:31.395Z,26.00
2017-07-22T23:04:58.929Z,26.00
2017-07-22T23:07:26.462Z,26.00
2017-07-22T23:09:53.988Z,25.90
2017-07-22T23:12:21.509Z,25.80
2017-07-22T23:14:49.026Z,25.30
2017-07-22T23:17:16.595Z,25.30
2017-07-22T23:19:44.920Z,25.20
2017-07-22T23:22:12.458Z,25.10
2017-07-22T23:24:40.020Z,25.30
2017-07-22T23:27:07.555Z,25.40
2017-07-22T23:29:35.086Z,25.50
2017-07-22T23:32:02.633Z,25.60
2017-07-22T23:34:30.163Z,25.40
2017-07-22T23:36:57.746Z,25.40
2017-07-22T23:39:25.254Z,25.30
2017-07-22T23:41:52.778Z,25.10
2017-07-22T23:44:20.333Z,25.00
2017-07-22T23:46:47.842Z,25.00
2017-07-22T23:49:16.141Z,24.90
2017-07-22T23:51:43.696Z,24.90
2017-07-22T23:54:11.266Z,24.90
2017-07-22T23:56:38.778Z,24.90
2017-07-22T23:59:06.298Z,24.30
